sensor_id;sensor_type;location;lat;lon;timestamp;P1;durP1;ratioP1;P2;durP2;ratioP2
34737;SDS011;39910;47.154;27.614;2022-07-06T00:01:35;5.40;;;5.20;;
34737;SDS011;39910;47.154;27.614;2022-07-06T00:04:03;5.15;;;4.95;;
34737;SDS011;39910;47.154;27.614;2022-07-06T00:06:28;5.25;;;5.05;;
34737;SDS011;39910;47.154;27.614;2022-07-06T00:08:54;5.30;;;5.10;;
34737;SDS011;39910;47.154;27.614;2022-07-06T00:11:19;5.50;;;5.30;;
34737;SDS011;39910;47.154;27.614;2022-07-06T00:13:45;5.40;;;5.20;;
34737;SDS011;39910;47.154;27.614;2022-07-06T00:16:10;5.40;;;5.20;;
34737;SDS011;39910;47.154;27.614;2022-07-06T00:18:35;5.20;;;5.00;;
34737;SDS011;39910;47.154;27.614;2022-07-06T00:21:01;5.38;;;5.18;;
34737;SDS011;39910;47.154;27.614;2022-07-06T00:23:26;5.40;;;5.20;;
34737;SDS011;39910;47.154;27.614;2022-07-06T00:25:51;5.22;;;5.03;;
34737;SDS011;39910;47.154;27.614;2022-07-06T00:28:16;5.40;;;5.20;;
34737;SDS011;39910;47.154;27.614;2022-07-06T00:30:42;5.25;;;5.05;;
34737;SDS011;39910;47.154;27.614;2022-07-06T00:33:07;5.20;;;5.00;;
34737;SDS011;39910;47.154;27.614;2022-07-06T00:35:33;5.47;;;5.28;;
34737;SDS011;39910;47.154;27.614;2022-07-06T00:37:58;5.40;;;5.20;;
34737;SDS011;39910;47.154;27.614;2022-07-06T00:40:23;5.40;;;5.20;;
34737;SDS011;39910;47.154;27.614;2022-07-06T00:42:49;5.38;;;5.18;;
34737;SDS011;39910;47.154;27.614;2022-07-06T00:45:15;5.40;;;5.20;;
34737;SDS011;39910;47.154;27.614;2022-07-06T00:47:41;5.32;;;5.13;;
34737;SDS011;39910;47.154;27.614;2022-07-06T00:50:07;5.50;;;5.30;;
34737;SDS011;39910;47.154;27.614;2022-07-06T00:52:39;5.43;;;5.22;;
34737;SDS011;39910;47.154;27.614;2022-07-06T00:55:05;5.40;;;5.20;;
34737;SDS011;39910;47.154;27.614;2022-07-06T00:57:30;5.38;;;5.18;;
34737;SDS011;39910;47.154;27.614;2022-07-06T00:59:56;5.40;;;5.20;;
34737;SDS011;39910;47.154;27.614;2022-07-06T01:02:21;5.30;;;5.10;;
34737;SDS011;39910;47.154;27.614;2022-07-06T01:04:47;5.38;;;5.18;;
34737;SDS011;39910;47.154;27.614;2022-07-06T01:07:13;5.40;;;5.20;;
34737;SDS011;39910;47.154;27.614;2022-07-06T01:09:38;5.30;;;5.10;;
34737;SDS011;39910;47.154;27.614;2022-07-06T01:12:04;5.30;;;5.10;;
34737;SDS011;39910;47.154;27.614;2022-07-06T01:14:29;5.50;;;5.30;;
34737;SDS011;39910;47.154;27.614;2022-07-06T01:16:55;5.40;;;5.20;;
34737;SDS011;39910;47.154;27.614;2022-07-06T01:19:21;5.50;;;5.30;;
34737;SDS011;39910;47.154;27.614;2022-07-06T01:21:47;5.35;;;5.15;;
34737;SDS011;39910;47.154;27.614;2022-07-06T01:24:12;5.50;;;5.30;;
34737;SDS011;39910;47.154;27.614;2022-07-06T01:26:38;5.35;;;5.15;;
34737;SDS011;39910;47.154;27.614;2022-07-06T01:29:03;5.38;;;5.18;;
34737;SDS011;39910;47.154;27.614;2022-07-06T01:31:29;5.20;;;5.00;;
34737;SDS011;39910;47.154;27.614;2022-07-06T01:33:54;5.20;;;5.00;;
34737;SDS011;39910;47.154;27.614;2022-07-06T01:36:20;5.20;;;5.00;;
34737;SDS011;39910;47.154;27.614;2022-07-06T01:38:49;5.60;;;5.40;;
34737;SDS011;39910;47.154;27.614;2022-07-06T01:41:15;5.38;;;5.18;;
34737;SDS011;39910;47.154;27.614;2022-07-06T01:43:41;5.30;;;5.10;;
34737;SDS011;39910;47.154;27.614;2022-07-06T01:46:06;5.30;;;5.10;;
34737;SDS011;39910;47.154;27.614;2022-07-06T01:48:31;5.30;;;5.10;;
34737;SDS011;39910;47.154;27.614;2022-07-06T01:50:57;5.50;;;5.30;;
34737;SDS011;39910;47.154;27.614;2022-07-06T01:53:22;5.30;;;5.10;;
34737;SDS011;39910;47.154;27.614;2022-07-06T01:55:47;5.03;;;4.82;;
34737;SDS011;39910;47.154;27.614;2022-07-06T01:58:12;5.15;;;4.95;;
34737;SDS011;39910;47.154;27.614;2022-07-06T02:00:38;5.38;;;5.18;;
34737;SDS011;39910;47.154;27.614;2022-07-06T02:03:03;5.30;;;5.10;;
34737;SDS011;39910;47.154;27.614;2022-07-06T02:05:28;5.40;;;5.20;;
34737;SDS011;39910;47.154;27.614;2022-07-06T02:07:54;5.32;;;5.13;;
34737;SDS011;39910;47.154;27.614;2022-07-06T02:10:19;5.40;;;5.20;;
34737;SDS011;39910;47.154;27.614;2022-07-06T02:12:44;5.20;;;5.00;;
34737;SDS011;39910;47.154;27.614;2022-07-06T02:15:10;5.30;;;5.10;;
34737;SDS011;39910;47.154;27.614;2022-07-06T02:17:35;5.40;;;5.20;;
34737;SDS011;39910;47.154;27.614;2022-07-06T02:20:00;5.38;;;5.18;;
34737;SDS011;39910;47.154;27.614;2022-07-06T02:22:26;5.20;;;5.00;;
34737;SDS011;39910;47.154;27.614;2022-07-06T02:24:51;5.35;;;5.15;;
34737;SDS011;39910;47.154;27.614;2022-07-06T02:27:16;5.30;;;5.10;;
34737;SDS011;39910;47.154;27.614;2022-07-06T02:29:42;5.30;;;5.10;;
34737;SDS011;39910;47.154;27.614;2022-07-06T02:32:07;5.38;;;5.18;;
34737;SDS011;39910;47.154;27.614;2022-07-06T02:34:32;5.47;;;5.28;;
34737;SDS011;39910;47.154;27.614;2022-07-06T02:36:58;5.43;;;5.22;;
34737;SDS011;39910;47.154;27.614;2022-07-06T02:39:25;5.18;;;4.97;;
34737;SDS011;39910;47.154;27.614;2022-07-06T02:41:50;5.22;;;5.03;;
34737;SDS011;39910;47.154;27.614;2022-07-06T02:44:16;5.38;;;5.18;;
34737;SDS011;39910;47.154;27.614;2022-07-06T02:46:41;5.28;;;5.07;;
34737;SDS011;39910;47.154;27.614;2022-07-06T02:49:06;5.38;;;5.18;;
34737;SDS011;39910;47.154;27.614;2022-07-06T02:51:32;5.35;;;5.15;;
34737;SDS011;39910;47.154;27.614;2022-07-06T02:53:57;5.35;;;5.15;;
34737;SDS011;39910;47.154;27.614;2022-07-06T02:56:22;5.38;;;5.18;;
34737;SDS011;39910;47.154;27.614;2022-07-06T02:58:47;5.43;;;5.22;;
34737;SDS011;39910;47.154;27.614;2022-07-06T03:01:13;5.30;;;5.10;;
34737;SDS011;39910;47.154;27.614;2022-07-06T03:03:38;5.50;;;5.30;;
34737;SDS011;39910;47.154;27.614;2022-07-06T03:06:03;5.50;;;5.30;;
34737;SDS011;39910;47.154;27.614;2022-07-06T03:08:29;5.50;;;5.30;;
34737;SDS011;39910;47.154;27.614;2022-07-06T03:10:54;5.40;;;5.20;;
34737;SDS011;39910;47.154;27.614;2022-07-06T03:13:19;5.45;;;5.25;;
34737;SDS011;39910;47.154;27.614;2022-07-06T03:15:44;5.60;;;5.40;;
34737;SDS011;39910;47.154;27.614;2022-07-06T03:18:10;5.70;;;5.50;;
34737;SDS011;39910;47.154;27.614;2022-07-06T03:20:35;5.68;;;5.47;;
34737;SDS011;39910;47.154;27.614;2022-07-06T03:23:00;5.60;;;5.40;;
34737;SDS011;39910;47.154;27.614;2022-07-06T03:25:26;5.80;;;5.60;;
34737;SDS011;39910;47.154;27.614;2022-07-06T03:27:51;5.70;;;5.50;;
34737;SDS011;39910;47.154;27.614;2022-07-06T03:30:16;5.72;;;5.53;;
34737;SDS011;39910;47.154;27.614;2022-07-06T03:32:42;5.80;;;5.60;;
34737;SDS011;39910;47.154;27.614;2022-07-06T03:35:07;5.80;;;5.60;;
34737;SDS011;39910;47.154;27.614;2022-07-06T03:37:33;5.90;;;5.70;;
34737;SDS011;39910;47.154;27.614;2022-07-06T03:39:58;5.78;;;5.57;;
34737;SDS011;39910;47.154;27.614;2022-07-06T03:42:23;5.87;;;5.67;;
34737;SDS011;39910;47.154;27.614;2022-07-06T03:44:48;6.00;;;5.80;;
34737;SDS011;39910;47.154;27.614;2022-07-06T03:47:14;5.75;;;5.55;;
34737;SDS011;39910;47.154;27.614;2022-07-06T03:49:39;5.80;;;5.60;;
34737;SDS011;39910;47.154;27.614;2022-07-06T03:52:04;5.78;;;5.57;;
34737;SDS011;39910;47.154;27.614;2022-07-06T03:54:30;5.70;;;5.50;;
34737;SDS011;39910;47.154;27.614;2022-07-06T03:56:55;5.88;;;5.68;;
34737;SDS011;39910;47.154;27.614;2022-07-06T03:59:21;5.93;;;5.73;;
34737;SDS011;39910;47.154;27.614;2022-07-06T04:01:46;5.93;;;5.73;;
34737;SDS011;39910;47.154;27.614;2022-07-06T04:04:11;6.10;;;5.90;;
34737;SDS011;39910;47.154;27.614;2022-07-06T04:06:37;6.20;;;5.97;;
34737;SDS011;39910;47.154;27.614;2022-07-06T04:09:03;6.10;;;5.90;;
34737;SDS011;39910;47.154;27.614;2022-07-06T04:11:28;6.17;;;5.97;;
34737;SDS011;39910;47.154;27.614;2022-07-06T04:13:54;6.00;;;5.80;;
34737;SDS011;39910;47.154;27.614;2022-07-06T04:16:19;6.05;;;5.85;;
34737;SDS011;39910;47.154;27.614;2022-07-06T04:18:45;6.07;;;5.88;;
34737;SDS011;39910;47.154;27.614;2022-07-06T04:21:10;5.93;;;5.72;;
34737;SDS011;39910;47.154;27.614;2022-07-06T04:23:36;6.15;;;5.95;;
34737;SDS011;39910;47.154;27.614;2022-07-06T04:26:01;6.20;;;6.00;;
34737;SDS011;39910;47.154;27.614;2022-07-06T04:28:26;6.15;;;5.95;;
34737;SDS011;39910;47.154;27.614;2022-07-06T04:30:52;6.40;;;6.10;;
34737;SDS011;39910;47.154;27.614;2022-07-06T04:33:17;6.40;;;6.10;;
34737;SDS011;39910;47.154;27.614;2022-07-06T04:35:42;6.60;;;6.30;;
34737;SDS011;39910;47.154;27.614;2022-07-06T04:38:08;6.43;;;6.13;;
34737;SDS011;39910;47.154;27.614;2022-07-06T04:40:33;6.32;;;6.05;;
34737;SDS011;39910;47.154;27.614;2022-07-06T04:42:58;6.35;;;6.05;;
34737;SDS011;39910;47.154;27.614;2022-07-06T04:45:24;6.32;;;6.05;;
34737;SDS011;39910;47.154;27.614;2022-07-06T04:47:50;6.65;;;6.35;;
34737;SDS011;39910;47.154;27.614;2022-07-06T04:50:15;6.07;;;5.88;;
34737;SDS011;39910;47.154;27.614;2022-07-06T04:52:40;6.20;;;6.00;;
34737;SDS011;39910;47.154;27.614;2022-07-06T04:55:06;5.97;;;5.77;;
34737;SDS011;39910;47.154;27.614;2022-07-06T04:57:33;6.40;;;6.10;;
34737;SDS011;39910;47.154;27.614;2022-07-06T04:59:58;6.60;;;6.30;;
34737;SDS011;39910;47.154;27.614;2022-07-06T05:02:23;6.27;;;6.00;;
34737;SDS011;39910;47.154;27.614;2022-07-06T05:04:49;6.60;;;6.30;;
34737;SDS011;39910;47.154;27.614;2022-07-06T05:07:14;6.57;;;6.28;;
34737;SDS011;39910;47.154;27.614;2022-07-06T05:09:40;6.60;;;6.30;;
34737;SDS011;39910;47.154;27.614;2022-07-06T05:12:05;6.15;;;5.95;;
34737;SDS011;39910;47.154;27.614;2022-07-06T05:14:31;6.10;;;5.90;;
34737;SDS011;39910;47.154;27.614;2022-07-06T05:16:56;6.13;;;5.93;;
34737;SDS011;39910;47.154;27.614;2022-07-06T05:19:21;6.30;;;6.00;;
34737;SDS011;39910;47.154;27.614;2022-07-06T05:21:47;6.47;;;6.18;;
34737;SDS011;39910;47.154;27.614;2022-07-06T05:24:12;6.47;;;6.17;;
34737;SDS011;39910;47.154;27.614;2022-07-06T05:26:37;6.17;;;5.97;;
34737;SDS011;39910;47.154;27.614;2022-07-06T05:29:03;6.60;;;6.30;;
34737;SDS011;39910;47.154;27.614;2022-07-06T05:31:28;6.20;;;6.00;;
34737;SDS011;39910;47.154;27.614;2022-07-06T05:33:53;6.70;;;6.40;;
34737;SDS011;39910;47.154;27.614;2022-07-06T05:36:19;6.63;;;6.32;;
34737;SDS011;39910;47.154;27.614;2022-07-06T05:38:44;6.50;;;6.20;;
34737;SDS011;39910;47.154;27.614;2022-07-06T05:41:09;6.80;;;6.50;;
34737;SDS011;39910;47.154;27.614;2022-07-06T05:43:35;6.80;;;6.50;;
34737;SDS011;39910;47.154;27.614;2022-07-06T05:46:01;6.80;;;6.50;;
34737;SDS011;39910;47.154;27.614;2022-07-06T05:48:26;6.53;;;6.23;;
34737;SDS011;39910;47.154;27.614;2022-07-06T05:51:10;6.50;;;6.20;;
34737;SDS011;39910;47.154;27.614;2022-07-06T05:53:35;6.75;;;6.45;;
34737;SDS011;39910;47.154;27.614;2022-07-06T05:56:01;6.77;;;6.47;;
34737;SDS011;39910;47.154;27.614;2022-07-06T05:58:26;6.60;;;6.30;;
34737;SDS011;39910;47.154;27.614;2022-07-06T06:00:51;6.83;;;6.53;;
34737;SDS011;39910;47.154;27.614;2022-07-06T06:03:16;6.80;;;6.50;;
34737;SDS011;39910;47.154;27.614;2022-07-06T06:05:42;6.80;;;6.50;;
34737;SDS011;39910;47.154;27.614;2022-07-06T06:08:07;6.78;;;6.47;;
34737;SDS011;39910;47.154;27.614;2022-07-06T06:10:33;6.78;;;6.47;;
34737;SDS011;39910;47.154;27.614;2022-07-06T06:12:58;6.90;;;6.60;;
34737;SDS011;39910;47.154;27.614;2022-07-06T06:15:24;7.13;;;6.83;;
34737;SDS011;39910;47.154;27.614;2022-07-06T06:17:49;7.00;;;6.70;;
34737;SDS011;39910;47.154;27.614;2022-07-06T06:20:14;7.20;;;6.90;;
34737;SDS011;39910;47.154;27.614;2022-07-06T06:25:12;6.85;;;6.55;;
34737;SDS011;39910;47.154;27.614;2022-07-06T06:27:37;6.70;;;6.40;;
34737;SDS011;39910;47.154;27.614;2022-07-06T06:30:03;6.80;;;6.50;;
34737;SDS011;39910;47.154;27.614;2022-07-06T06:32:29;6.75;;;6.45;;
34737;SDS011;39910;47.154;27.614;2022-07-06T06:34:54;7.00;;;6.70;;
34737;SDS011;39910;47.154;27.614;2022-07-06T06:37:19;7.10;;;6.80;;
34737;SDS011;39910;47.154;27.614;2022-07-06T06:39:44;6.70;;;6.40;;
34737;SDS011;39910;47.154;27.614;2022-07-06T06:42:10;6.77;;;6.47;;
34737;SDS011;39910;47.154;27.614;2022-07-06T06:44:35;6.77;;;6.47;;
34737;SDS011;39910;47.154;27.614;2022-07-06T06:47:00;6.70;;;6.40;;
34737;SDS011;39910;47.154;27.614;2022-07-06T06:49:26;6.57;;;6.27;;
34737;SDS011;39910;47.154;27.614;2022-07-06T06:51:51;6.70;;;6.40;;
34737;SDS011;39910;47.154;27.614;2022-07-06T06:54:16;6.30;;;6.00;;
34737;SDS011;39910;47.154;27.614;2022-07-06T06:56:41;6.13;;;5.93;;
34737;SDS011;39910;47.154;27.614;2022-07-06T06:59:07;6.53;;;6.23;;
34737;SDS011;39910;47.154;27.614;2022-07-06T07:01:32;6.40;;;6.10;;
34737;SDS011;39910;47.154;27.614;2022-07-06T07:03:58;6.40;;;6.10;;
34737;SDS011;39910;47.154;27.614;2022-07-06T07:06:23;6.60;;;6.30;;
34737;SDS011;39910;47.154;27.614;2022-07-06T07:08:48;6.38;;;6.10;;
34737;SDS011;39910;47.154;27.614;2022-07-06T07:11:14;6.50;;;6.20;;
34737;SDS011;39910;47.154;27.614;2022-07-06T07:13:39;6.27;;;6.07;;
34737;SDS011;39910;47.154;27.614;2022-07-06T07:16:05;6.38;;;6.07;;
34737;SDS011;39910;47.154;27.614;2022-07-06T07:18:30;6.80;;;6.50;;
34737;SDS011;39910;47.154;27.614;2022-07-06T07:20:55;6.70;;;6.40;;
34737;SDS011;39910;47.154;27.614;2022-07-06T07:23:21;6.67;;;6.37;;
34737;SDS011;39910;47.154;27.614;2022-07-06T07:25:46;6.20;;;6.00;;
34737;SDS011;39910;47.154;27.614;2022-07-06T07:28:11;6.63;;;6.33;;
34737;SDS011;39910;47.154;27.614;2022-07-06T07:30:36;6.33;;;6.10;;
34737;SDS011;39910;47.154;27.614;2022-07-06T07:33:02;6.50;;;6.20;;
34737;SDS011;39910;47.154;27.614;2022-07-06T07:35:27;6.50;;;6.20;;
34737;SDS011;39910;47.154;27.614;2022-07-06T07:37:52;6.35;;;6.07;;
34737;SDS011;39910;47.154;27.614;2022-07-06T07:40:18;6.23;;;6.00;;
34737;SDS011;39910;47.154;27.614;2022-07-06T07:42:43;6.47;;;6.18;;
34737;SDS011;39910;47.154;27.614;2022-07-06T07:45:10;6.13;;;5.93;;
34737;SDS011;39910;47.154;27.614;2022-07-06T07:47:35;6.07;;;5.88;;
34737;SDS011;39910;47.154;27.614;2022-07-06T07:50:01;5.83;;;5.63;;
34737;SDS011;39910;47.154;27.614;2022-07-06T07:52:26;6.07;;;5.87;;
34737;SDS011;39910;47.154;27.614;2022-07-06T07:54:51;5.72;;;5.53;;
34737;SDS011;39910;47.154;27.614;2022-07-06T07:57:17;6.00;;;5.80;;
34737;SDS011;39910;47.154;27.614;2022-07-06T07:59:42;6.00;;;5.80;;
34737;SDS011;39910;47.154;27.614;2022-07-06T08:02:08;5.73;;;5.53;;
34737;SDS011;39910;47.154;27.614;2022-07-06T08:04:33;5.90;;;5.70;;
34737;SDS011;39910;47.154;27.614;2022-07-06T08:06:58;6.10;;;5.90;;
34737;SDS011;39910;47.154;27.614;2022-07-06T08:09:24;5.82;;;5.63;;
34737;SDS011;39910;47.154;27.614;2022-07-06T08:11:49;6.00;;;5.80;;
34737;SDS011;39910;47.154;27.614;2022-07-06T08:14:14;6.00;;;5.80;;
34737;SDS011;39910;47.154;27.614;2022-07-06T08:16:41;5.90;;;5.70;;
34737;SDS011;39910;47.154;27.614;2022-07-06T08:19:07;5.80;;;5.60;;
34737;SDS011;39910;47.154;27.614;2022-07-06T08:21:32;5.68;;;5.47;;
34737;SDS011;39910;47.154;27.614;2022-07-06T08:23:58;5.90;;;5.70;;
34737;SDS011;39910;47.154;27.614;2022-07-06T08:26:25;5.78;;;5.57;;
34737;SDS011;39910;47.154;27.614;2022-07-06T08:28:51;5.75;;;5.55;;
34737;SDS011;39910;47.154;27.614;2022-07-06T08:31:16;5.75;;;5.55;;
34737;SDS011;39910;47.154;27.614;2022-07-06T08:33:42;5.78;;;5.57;;
34737;SDS011;39910;47.154;27.614;2022-07-06T08:36:07;5.90;;;5.70;;
34737;SDS011;39910;47.154;27.614;2022-07-06T08:38:32;5.80;;;5.60;;
34737;SDS011;39910;47.154;27.614;2022-07-06T08:40:58;5.83;;;5.63;;
34737;SDS011;39910;47.154;27.614;2022-07-06T08:43:23;5.90;;;5.70;;
34737;SDS011;39910;47.154;27.614;2022-07-06T08:45:49;5.68;;;5.47;;
34737;SDS011;39910;47.154;27.614;2022-07-06T08:48:15;5.88;;;5.68;;
34737;SDS011;39910;47.154;27.614;2022-07-06T08:50:40;5.80;;;5.60;;
34737;SDS011;39910;47.154;27.614;2022-07-06T08:53:06;5.70;;;5.50;;
34737;SDS011;39910;47.154;27.614;2022-07-06T08:55:31;5.88;;;5.68;;
34737;SDS011;39910;47.154;27.614;2022-07-06T08:57:57;5.55;;;5.35;;
34737;SDS011;39910;47.154;27.614;2022-07-06T09:00:23;5.82;;;5.63;;
34737;SDS011;39910;47.154;27.614;2022-07-06T09:02:50;5.78;;;5.57;;
34737;SDS011;39910;47.154;27.614;2022-07-06T09:05:16;5.63;;;5.43;;
34737;SDS011;39910;47.154;27.614;2022-07-06T09:07:41;5.75;;;5.55;;
34737;SDS011;39910;47.154;27.614;2022-07-06T09:10:08;5.80;;;5.60;;
34737;SDS011;39910;47.154;27.614;2022-07-06T09:12:34;5.70;;;5.50;;
34737;SDS011;39910;47.154;27.614;2022-07-06T09:14:59;5.60;;;5.40;;
34737;SDS011;39910;47.154;27.614;2022-07-06T09:17:28;5.68;;;5.47;;
34737;SDS011;39910;47.154;27.614;2022-07-06T09:19:54;5.68;;;5.47;;
34737;SDS011;39910;47.154;27.614;2022-07-06T09:22:29;5.60;;;5.40;;
34737;SDS011;39910;47.154;27.614;2022-07-06T09:25:09;5.63;;;5.43;;
34737;SDS011;39910;47.154;27.614;2022-07-06T09:27:39;5.60;;;5.40;;
34737;SDS011;39910;47.154;27.614;2022-07-06T09:30:05;5.45;;;5.25;;
34737;SDS011;39910;47.154;27.614;2022-07-06T09:32:31;5.50;;;5.30;;
34737;SDS011;39910;47.154;27.614;2022-07-06T09:35:02;5.50;;;5.30;;
34737;SDS011;39910;47.154;27.614;2022-07-06T09:37:28;5.75;;;5.55;;
34737;SDS011;39910;47.154;27.614;2022-07-06T09:39:54;5.80;;;5.60;;
34737;SDS011;39910;47.154;27.614;2022-07-06T09:42:23;5.70;;;5.50;;
34737;SDS011;39910;47.154;27.614;2022-07-06T09:44:49;5.80;;;5.60;;
34737;SDS011;39910;47.154;27.614;2022-07-06T09:47:14;5.60;;;5.40;;
34737;SDS011;39910;47.154;27.614;2022-07-06T09:49:40;5.80;;;5.60;;
34737;SDS011;39910;47.154;27.614;2022-07-06T09:52:06;5.80;;;5.60;;
34737;SDS011;39910;47.154;27.614;2022-07-06T09:54:32;5.70;;;5.50;;
34737;SDS011;39910;47.154;27.614;2022-07-06T09:56:58;5.50;;;5.30;;
34737;SDS011;39910;47.154;27.614;2022-07-06T09:59:30;5.60;;;5.40;;
34737;SDS011;39910;47.154;27.614;2022-07-06T10:01:59;5.90;;;5.70;;
34737;SDS011;39910;47.154;27.614;2022-07-06T10:04:26;5.60;;;5.40;;
34737;SDS011;39910;47.154;27.614;2022-07-06T10:06:52;5.65;;;5.45;;
34737;SDS011;39910;47.154;27.614;2022-07-06T10:09:18;5.70;;;5.50;;
34737;SDS011;39910;47.154;27.614;2022-07-06T10:11:45;5.70;;;5.50;;
34737;SDS011;39910;47.154;27.614;2022-07-06T10:14:12;5.68;;;5.47;;
34737;SDS011;39910;47.154;27.614;2022-07-06T10:16:39;5.57;;;5.38;;
34737;SDS011;39910;47.154;27.614;2022-07-06T10:19:06;5.70;;;5.50;;
34737;SDS011;39910;47.154;27.614;2022-07-06T10:21:32;5.68;;;5.47;;
34737;SDS011;39910;47.154;27.614;2022-07-06T10:23:58;5.50;;;5.30;;
34737;SDS011;39910;47.154;27.614;2022-07-06T10:26:25;5.60;;;5.40;;
34737;SDS011;39910;47.154;27.614;2022-07-06T10:28:50;5.60;;;5.40;;
34737;SDS011;39910;47.154;27.614;2022-07-06T10:31:17;5.53;;;5.32;;
34737;SDS011;39910;47.154;27.614;2022-07-06T10:33:43;5.70;;;5.50;;
34737;SDS011;39910;47.154;27.614;2022-07-06T10:36:08;5.38;;;5.18;;
34737;SDS011;39910;47.154;27.614;2022-07-06T10:38:34;5.50;;;5.30;;
34737;SDS011;39910;47.154;27.614;2022-07-06T10:41:09;5.60;;;5.40;;
34737;SDS011;39910;47.154;27.614;2022-07-06T10:43:35;5.50;;;5.30;;
34737;SDS011;39910;47.154;27.614;2022-07-06T10:46:22;5.70;;;5.50;;
34737;SDS011;39910;47.154;27.614;2022-07-06T10:48:47;5.50;;;5.30;;
34737;SDS011;39910;47.154;27.614;2022-07-06T10:51:22;5.57;;;5.38;;
34737;SDS011;39910;47.154;27.614;2022-07-06T10:53:49;5.60;;;5.40;;
34737;SDS011;39910;47.154;27.614;2022-07-06T10:56:20;5.50;;;5.30;;
34737;SDS011;39910;47.154;27.614;2022-07-06T10:58:56;5.55;;;5.35;;
34737;SDS011;39910;47.154;27.614;2022-07-06T11:01:21;5.40;;;5.20;;
34737;SDS011;39910;47.154;27.614;2022-07-06T11:06:17;5.50;;;5.30;;
34737;SDS011;39910;47.154;27.614;2022-07-06T11:11:12;5.55;;;5.35;;
34737;SDS011;39910;47.154;27.614;2022-07-06T11:16:12;5.50;;;5.30;;
34737;SDS011;39910;47.154;27.614;2022-07-06T11:18:39;5.50;;;5.30;;
34737;SDS011;39910;47.154;27.614;2022-07-06T11:21:20;5.45;;;5.25;;
34737;SDS011;39910;47.154;27.614;2022-07-06T11:23:47;5.70;;;5.50;;
34737;SDS011;39910;47.154;27.614;2022-07-06T11:26:13;5.70;;;5.50;;
34737;SDS011;39910;47.154;27.614;2022-07-06T11:28:39;5.45;;;5.25;;
34737;SDS011;39910;47.154;27.614;2022-07-06T11:31:04;5.60;;;5.40;;
34737;SDS011;39910;47.154;27.614;2022-07-06T11:33:30;5.50;;;5.30;;
34737;SDS011;39910;47.154;27.614;2022-07-06T11:38:40;5.82;;;5.63;;
34737;SDS011;39910;47.154;27.614;2022-07-06T11:41:05;5.57;;;5.38;;
34737;SDS011;39910;47.154;27.614;2022-07-06T11:43:31;5.60;;;5.40;;
34737;SDS011;39910;47.154;27.614;2022-07-06T11:45:56;5.72;;;5.53;;
34737;SDS011;39910;47.154;27.614;2022-07-06T11:48:21;5.73;;;5.53;;
34737;SDS011;39910;47.154;27.614;2022-07-06T11:53:24;5.60;;;5.40;;
34737;SDS011;39910;47.154;27.614;2022-07-06T11:55:50;5.70;;;5.50;;
34737;SDS011;39910;47.154;27.614;2022-07-06T11:58:15;5.53;;;5.32;;
34737;SDS011;39910;47.154;27.614;2022-07-06T12:00:42;5.70;;;5.50;;
34737;SDS011;39910;47.154;27.614;2022-07-06T12:03:07;5.72;;;5.53;;
34737;SDS011;39910;47.154;27.614;2022-07-06T12:05:32;5.70;;;5.50;;
34737;SDS011;39910;47.154;27.614;2022-07-06T12:08:04;5.60;;;5.40;;
34737;SDS011;39910;47.154;27.614;2022-07-06T12:10:33;5.50;;;5.30;;
34737;SDS011;39910;47.154;27.614;2022-07-06T12:13:04;5.53;;;5.32;;
34737;SDS011;39910;47.154;27.614;2022-07-06T12:15:29;5.50;;;5.30;;
34737;SDS011;39910;47.154;27.614;2022-07-06T12:17:55;5.45;;;5.25;;
34737;SDS011;39910;47.154;27.614;2022-07-06T12:20:20;5.45;;;5.25;;
34737;SDS011;39910;47.154;27.614;2022-07-06T12:22:46;5.40;;;5.20;;
34737;SDS011;39910;47.154;27.614;2022-07-06T12:25:11;5.43;;;5.22;;
34737;SDS011;39910;47.154;27.614;2022-07-06T12:27:36;5.57;;;5.38;;
34737;SDS011;39910;47.154;27.614;2022-07-06T12:30:08;5.60;;;5.40;;
34737;SDS011;39910;47.154;27.614;2022-07-06T12:32:33;5.70;;;5.50;;
34737;SDS011;39910;47.154;27.614;2022-07-06T12:35:07;5.50;;;5.30;;
34737;SDS011;39910;47.154;27.614;2022-07-06T12:37:33;5.57;;;5.38;;
34737;SDS011;39910;47.154;27.614;2022-07-06T12:39:59;5.50;;;5.30;;
34737;SDS011;39910;47.154;27.614;2022-07-06T12:42:24;5.50;;;5.30;;
34737;SDS011;39910;47.154;27.614;2022-07-06T12:44:50;5.60;;;5.40;;
34737;SDS011;39910;47.154;27.614;2022-07-06T12:47:22;5.60;;;5.40;;
34737;SDS011;39910;47.154;27.614;2022-07-06T12:49:48;5.47;;;5.28;;
34737;SDS011;39910;47.154;27.614;2022-07-06T12:52:15;5.57;;;5.38;;
34737;SDS011;39910;47.154;27.614;2022-07-06T12:59:31;5.47;;;5.28;;
34737;SDS011;39910;47.154;27.614;2022-07-06T13:01:57;5.60;;;5.40;;
34737;SDS011;39910;47.154;27.614;2022-07-06T13:04:23;5.50;;;5.30;;
34737;SDS011;39910;47.154;27.614;2022-07-06T13:06:49;5.55;;;5.35;;
34737;SDS011;39910;47.154;27.614;2022-07-06T13:09:14;5.53;;;5.32;;
34737;SDS011;39910;47.154;27.614;2022-07-06T13:11:41;5.57;;;5.38;;
34737;SDS011;39910;47.154;27.614;2022-07-06T13:14:06;5.60;;;5.40;;
34737;SDS011;39910;47.154;27.614;2022-07-06T13:16:31;5.43;;;5.23;;
34737;SDS011;39910;47.154;27.614;2022-07-06T13:18:59;5.60;;;5.40;;
34737;SDS011;39910;47.154;27.614;2022-07-06T13:21:25;5.60;;;5.40;;
34737;SDS011;39910;47.154;27.614;2022-07-06T13:23:50;5.50;;;5.30;;
34737;SDS011;39910;47.154;27.614;2022-07-06T13:26:15;5.70;;;5.50;;
34737;SDS011;39910;47.154;27.614;2022-07-06T13:28:41;5.40;;;5.20;;
34737;SDS011;39910;47.154;27.614;2022-07-06T13:31:06;5.57;;;5.38;;
34737;SDS011;39910;47.154;27.614;2022-07-06T13:33:31;5.50;;;5.30;;
34737;SDS011;39910;47.154;27.614;2022-07-06T13:35:57;5.50;;;5.30;;
34737;SDS011;39910;47.154;27.614;2022-07-06T13:38:22;5.50;;;5.30;;
34737;SDS011;39910;47.154;27.614;2022-07-06T13:40:47;5.70;;;5.50;;
34737;SDS011;39910;47.154;27.614;2022-07-06T13:43:13;5.68;;;5.47;;
34737;SDS011;39910;47.154;27.614;2022-07-06T13:45:38;5.50;;;5.30;;
34737;SDS011;39910;47.154;27.614;2022-07-06T13:48:03;5.47;;;5.28;;
34737;SDS011;39910;47.154;27.614;2022-07-06T13:50:29;5.50;;;5.30;;
34737;SDS011;39910;47.154;27.614;2022-07-06T13:52:57;5.70;;;5.50;;
34737;SDS011;39910;47.154;27.614;2022-07-06T13:55:22;5.40;;;5.20;;
34737;SDS011;39910;47.154;27.614;2022-07-06T13:57:48;5.40;;;5.20;;
34737;SDS011;39910;47.154;27.614;2022-07-06T14:00:13;5.45;;;5.25;;
34737;SDS011;39910;47.154;27.614;2022-07-06T14:02:39;5.60;;;5.40;;
34737;SDS011;39910;47.154;27.614;2022-07-06T14:05:04;5.40;;;5.20;;
34737;SDS011;39910;47.154;27.614;2022-07-06T14:07:30;5.40;;;5.20;;
34737;SDS011;39910;47.154;27.614;2022-07-06T14:09:55;5.30;;;5.10;;
34737;SDS011;39910;47.154;27.614;2022-07-06T14:12:20;5.60;;;5.40;;
34737;SDS011;39910;47.154;27.614;2022-07-06T14:14:48;5.50;;;5.30;;
34737;SDS011;39910;47.154;27.614;2022-07-06T14:17:14;5.30;;;5.10;;
34737;SDS011;39910;47.154;27.614;2022-07-06T14:19:39;5.47;;;5.28;;
34737;SDS011;39910;47.154;27.614;2022-07-06T14:22:04;5.32;;;5.13;;
34737;SDS011;39910;47.154;27.614;2022-07-06T14:24:30;5.20;;;5.00;;
34737;SDS011;39910;47.154;27.614;2022-07-06T14:26:55;5.40;;;5.20;;
34737;SDS011;39910;47.154;27.614;2022-07-06T14:29:20;5.40;;;5.20;;
34737;SDS011;39910;47.154;27.614;2022-07-06T14:31:46;5.32;;;5.13;;
34737;SDS011;39910;47.154;27.614;2022-07-06T14:34:12;5.30;;;5.10;;
34737;SDS011;39910;47.154;27.614;2022-07-06T14:36:37;5.32;;;5.13;;
34737;SDS011;39910;47.154;27.614;2022-07-06T14:39:04;5.32;;;5.13;;
34737;SDS011;39910;47.154;27.614;2022-07-06T14:41:29;5.30;;;5.10;;
34737;SDS011;39910;47.154;27.614;2022-07-06T14:43:54;5.30;;;5.10;;
34737;SDS011;39910;47.154;27.614;2022-07-06T14:46:20;5.50;;;5.30;;